Flight Track Log - Related Links

Times and Time Zones

All times are in EDT time to prevent confusion due to time zone crossing. See the RPA3228 flight status page for this flight to view local times or setup timezone preferences in your user account.

Time Position Orientation Groundspeed Altitude Reporting Facility
EDT Latitude Longitude Course Direction KTS MPH feet Rate Location/Type
Sat 10:31:43 AM 38.8833 -77.0667 90° East 161 185 2,400  Level Potomac TRACON
Sat 10:32:43 AM 38.9333 -77.1167 322° Northwest 224 258 4,400 2,600 Climbing Potomac TRACON
Sat 10:33:00 AM 38.9739 -76.6689 57° Northeast  Level FlightAware Approximate
Sat 10:33:43 AM 38.9833 -77.1500 333° Northwest 255 293 7,600  Level Potomac TRACON
Sat 10:34:00 AM 39.0228 -76.5482 67° East  Level FlightAware Approximate
Sat 10:34:43 AM 39.0167 -77.0500 67° East 309 356 10,500  Level Potomac TRACON
Sat 10:35:00 AM 39.0699 -76.4258 61° Northeast  Level FlightAware Approximate
Sat 10:36:00 AM 39.1167 -76.3046 90° East  Level FlightAware Approximate
Sat 10:36:20 AM 39.0378 -76.8797 81° East 349 402 13,500  Level Washington Center
Sat 10:37:21 AM 39.0536 -76.7517 81° East 354 407 16,300 2,231 Climbing Washington Center
Sat 10:38:21 AM 39.0675 -76.6156 82° East 360 414 18,000 1,900 Climbing Washington Center
Sat 10:39:21 AM 39.0789 -76.4739 84° East 380 437 20,100 2,000 Climbing Washington Center
Sat 10:40:21 AM 39.1153 -76.3406 71° East 390 449 22,000 1,450 Climbing Washington Center
Sat 10:41:21 AM 39.1494 -76.1992 73° East 399 459 23,000 508 Climbing Washington Center
Sat 10:42:19 AM 39.1750 -76.0494 78° East 411 473 23,000 454 Level Washington Center
Sat 10:43:20 AM 39.1942 -75.9022 80° East 417 480 23,900 992 Climbing Washington Center
Sat 10:44:20 AM 39.2611 -75.7900 52° Northeast 388 447 25,000 1,289 Climbing Washington Center
Sat 10:45:21 AM 39.3383 -75.6908 45° Northeast 378 435 26,500 1,339 Climbing Washington Center
Sat 10:46:21 AM 39.4156 -75.5942 44° Northeast 378 435 27,700 1,231 Climbing Washington Center
Sat 10:47:18 AM 39.4969 -75.4894 45° Northeast 389 448 28,900 1,068 Climbing Washington Center
Sat 10:48:19 AM 39.5781 -75.3814 46° Northeast 401 461 29,800 893 Climbing Washington Center
Sat 10:49:19 AM 39.6611 -75.2733 45° Northeast 412 474 30,700 843 Climbing Washington Center
Sat 10:50:20 AM 39.7419 -75.1569 48° Northeast 419 482 31,500 1,021 Climbing Washington Center
Sat 10:50:53 AM 39.8039 -75.0647 49° Northeast 455 524 32,300 968 Climbing New York Center
Sat 10:51:53 AM 39.8786 -74.9583 48° Northeast 439 505 33,000 347 Climbing New York Center
Sat 10:52:54 AM 39.9622 -74.8386 48° Northeast 439 505 33,000  Level New York Center
Sat 10:53:54 AM 40.0517 -74.7219 45° Northeast 444 511 33,000  Level New York Center
Sat 10:54:55 AM 40.1325 -74.6042 48° Northeast 444 511 33,000  Level New York Center
Sat 10:55:55 AM 40.2133 -74.4864 48° Northeast 444 511 33,000  Level New York Center
Sat 10:56:54 AM 40.3064 -74.3825 40° Northeast 439 505 33,000  Level New York Center
Sat 10:57:54 AM 40.4228 -74.3261 20° North 434 499 33,000  Level New York Center
Sat 10:59:41 AM 40.6372 -74.2642 12° North 429 494 33,000  Level Boston Center
Sat 11:00:41 AM 40.7583 -74.2403 North 439 505 33,000  Level Boston Center
Sat 11:01:41 AM 40.8778 -74.2053 12° North 439 505 33,000  Level Boston Center
Sat 11:02:41 AM 40.9992 -74.1700 12° North 439 505 33,000  Level Boston Center
Sat 11:03:41 AM 41.1225 -74.1347 12° North 445 512 33,000  Level Boston Center
Sat 11:04:41 AM 41.2461 -74.1019 11° North 445 512 33,000  Level Boston Center
Sat 11:05:41 AM 41.3508 -74.0717 12° North 440 506 33,000  Level Boston Center
Sat 11:06:41 AM 41.4908 -74.0336 12° North 447 514 33,000  Level Boston Center
Sat 11:07:41 AM 41.6144 -74.0006 11° North 452 520 33,000  Level Boston Center
Sat 11:08:41 AM 41.7419 -73.9592 14° North 452 520 33,000  Level Boston Center
Sat 11:09:41 AM 41.8633 -73.9286 11° North 446 513 33,000  Level Boston Center
Sat 11:10:41 AM 41.9889 -73.8953 11° North 451 519 33,000  Level Boston Center
Sat 11:11:41 AM 42.1164 -73.8564 13° North 451 519 33,000  Level Boston Center
Sat 11:12:41 AM 42.2461 -73.8200 12° North 461 531 33,000  Level Boston Center
Sat 11:13:41 AM 42.3717 -73.7861 11° North 461 531 33,000  Level Boston Center
Sat 11:14:41 AM 42.4992 -73.7467 13° North 461 531 33,000  Level Boston Center
Sat 11:15:41 AM 42.6267 -73.7100 12° North 466 536 33,000  Level Boston Center
Sat 11:16:41 AM 42.7564 -73.6731 12° North 466 536 33,000  Level Boston Center
Sat 11:17:41 AM 42.8567 -73.6408 13° North 466 536 33,000  Level Boston Center
Sat 11:18:41 AM 42.9947 -73.5983 13° North 460 529 33,000 -500 Level Boston Center
Sat 11:19:41 AM 43.1222 -73.5608 12° North 460 529 32,000 -1,450 Descending Boston Center
Sat 11:20:41 AM 43.2603 -73.5178 13° North 460 529 30,100 -1,850 Descending Boston Center
Sat 11:21:41 AM 43.3856 -73.4828 11° North 465 535 28,300 -2,100 Descending Boston Center
Sat 11:22:41 AM 43.5047 -73.4478 12° North 447 514 25,900 -2,400 Descending Boston Center
Sat 11:23:41 AM 43.6175 -73.4150 12° North 434 499 23,500 -2,350 Descending Boston Center
Sat 11:24:41 AM 43.7239 -73.3853 11° North 398 458 21,200 -2,200 Descending Boston Center
Sat 11:25:41 AM 43.8242 -73.3553 12° North 367 422 19,100 -2,000 Descending Boston Center
Sat 11:26:53 AM 43.9186 -73.2758 31° Northeast 324 373 16,800 -2,045 Descending Boston Center
Sat 11:27:53 AM 43.9797 -73.1844 47° Northeast 324 373 14,600 -2,150 Descending Boston Center
Sat 11:28:53 AM 44.0386 -73.0956 47° Northeast 319 367 12,500 -1,950 Descending Boston Center
Sat 11:29:53 AM 44.0953 -73.0183 44° Northeast 297 342 10,700 -1,500 Descending Boston Center
Sat 11:30:53 AM 44.1394 -72.9492 48° Northeast 279 321 9,500 -1,400 Descending Boston Center
Sat 11:31:53 AM 44.1897 -72.8772 46° Northeast 259 298 7,900 -1,700 Descending Boston Center
Sat 11:32:53 AM 44.2461 -72.8431 23° Northeast 220 253 6,100 -1,200 Descending Boston Center
Sat 11:33:53 AM 44.3042 -72.8869 332° Northwest 230 265 5,500 -850 Descending Boston Center
Sat 11:34:53 AM 44.3478 -72.9539 312° West 230 265 4,400 -1,250 Descending Boston Center
Sat 11:35:53 AM 44.3850 -73.0153 310° West 223 257 3,000 -1,400 Descending Boston Center

Login

Don't have an account? Register now (free) for customized features, flight alerts, and more!